Kuala Lumpur, Malaysia

4:32 PM MYT on July 31, 2016 (GMT +0800)
Sungai Buloh | | Change Station

Elev 207 ft 3.21 °N, 101.56 °E | Updated 2 minutes ago

Mostly Cloudy
Mostly Cloudy
93.2 °F
Feels Like 99 °F
N
4.9
Wind Variable Wind from West
Gusts 10.7 mph

Today
High -- | Low -- °F
--% Chance of Precip.
Yesterday
High -- | Low -- °F
Precip. -- in
Pressure 29.74 in
Visibility 6.2 miles
Clouds Few 1700 ft
Scattered Clouds 1800 ft
Mostly Cloudy 28000 ft
Heat Index 99 °F
Dew Point 70 °F
Humidity 46%
Rainfall 0.00 in
Snow Depth Not available.
7:12 AM 7:27 PM
Waning Crescent, 8% visible
METAR WMKK 310800Z 23005KT 170V280 9999 FEW017CB SCT018 BKN280 31/24 Q1007 NOSIG
Pressure 29.74 in
Visibility 6.2 miles
Clouds Few 1700 ft
Scattered Clouds 1800 ft
Mostly Cloudy 28000 ft
Heat Index 99 °F
Dew Point 70 °F
Humidity 46%
Rainfall 0.00 in
Snow Depth Not available.
7:12 AM 7:27 PM
Waning Crescent, 8% visible
METAR WMKK 310800Z 23005KT 170V280 9999 FEW017CB SCT018 BKN280 31/24 Q1007 NOSIG

10-Day Weather Forecast

No radar image for this location.
×

Almanac

Astronomy

Jul. 31, 2016 Rise Set
Actual Time
Civil Twilight
Nautical Twilight
Astronomical Twilight
Moon
Length of Visible Light
Length of Day
Tomorrow will be .
, % of the Moon is Illuminated

Today's Extremes

Country Highs Country Lows

Community

WunderPhotos

Upload Photos

1,928,768 photos uploaded!

WunderBlog® & News

Nearby

Air Quality

  Air Quality AQ Index Pollutant
Not available.

Snow Depth

Station Depth Elevation

Earthquake Activity

City Distance Mag. Time & Date
Minimum magnitude displayed is 2.5.

Coastal Water Temperatures

Place Temperature

Stations

Nearby Weather Stations

Station Location Temp. Windchill Dew Point Humidity Wind Precip. Elev Updated Type